createdAt,value
2018-09-23T00:00:54.389Z,9.76
2018-09-23T00:03:58.159Z,9.72
2018-09-23T00:07:01.685Z,9.68
2018-09-23T00:10:05.281Z,9.67
2018-09-23T00:13:08.870Z,9.71
2018-09-23T00:16:12.772Z,9.79
2018-09-23T00:19:16.334Z,9.76
2018-09-23T00:22:19.947Z,9.77
2018-09-23T00:25:23.635Z,9.75
2018-09-23T00:28:27.164Z,9.74
2018-09-23T00:31:30.621Z,9.72
2018-09-23T00:34:34.127Z,9.70
2018-09-23T00:37:37.715Z,9.71
2018-09-23T00:40:41.196Z,9.77
2018-09-23T00:43:44.727Z,9.76
2018-09-23T00:46:48.360Z,9.74
2018-09-23T00:49:51.840Z,9.78
2018-09-23T00:52:55.377Z,9.77
2018-09-23T00:55:58.867Z,9.80
2018-09-23T00:59:02.466Z,9.82
2018-09-23T01:02:05.952Z,9.84
2018-09-23T01:05:09.576Z,9.82
2018-09-23T01:08:13.196Z,9.84
2018-09-23T01:11:16.746Z,9.90
2018-09-23T01:14:20.252Z,9.93
2018-09-23T01:17:23.772Z,9.91
2018-09-23T01:20:27.315Z,9.91
2018-09-23T01:23:30.937Z,9.93
2018-09-23T01:26:34.537Z,9.96
2018-09-23T01:29:37.991Z,9.98
2018-09-23T01:32:41.646Z,9.96
2018-09-23T01:35:45.371Z,9.98
2018-09-23T01:38:48.932Z,9.94
2018-09-23T01:41:52.446Z,9.92
2018-09-23T01:44:56.012Z,9.92
2018-09-23T01:47:59.541Z,9.95
2018-09-23T01:51:03.043Z,9.93
2018-09-23T01:54:06.577Z,9.96
2018-09-23T01:57:10.142Z,9.96
2018-09-23T02:00:13.726Z,9.95
2018-09-23T02:03:17.251Z,9.94
2018-09-23T02:06:20.792Z,9.99
2018-09-23T02:09:24.346Z,10.03
2018-09-23T02:12:27.870Z,9.98
2018-09-23T02:15:31.433Z,9.95
2018-09-23T02:18:34.991Z,9.97
2018-09-23T02:21:38.574Z,9.97
2018-09-23T02:24:42.322Z,9.95
2018-09-23T02:27:45.842Z,9.95
2018-09-23T02:30:49.352Z,9.98
2018-09-23T02:33:52.848Z,9.94
2018-09-23T02:36:56.407Z,9.96
2018-09-23T02:39:59.927Z,9.96
2018-09-23T02:43:03.475Z,10.05
2018-09-23T02:46:07.237Z,10.01
2018-09-23T02:49:10.811Z,10.00
2018-09-23T02:52:14.632Z,9.99
2018-09-23T02:55:18.186Z,9.94
2018-09-23T02:58:21.750Z,9.95
2018-09-23T03:01:25.247Z,9.93
2018-09-23T03:04:28.806Z,9.94
2018-09-23T03:07:32.355Z,9.98
2018-09-23T03:10:35.929Z,9.96
2018-09-23T03:13:39.457Z,9.97
2018-09-23T03:16:42.922Z,9.99
2018-09-23T03:19:46.549Z,9.95
2018-09-23T03:22:50.039Z,9.97
2018-09-23T03:25:53.591Z,9.97
2018-09-23T03:28:57.121Z,9.96
2018-09-23T03:32:00.588Z,9.97
2018-09-23T03:35:04.117Z,9.97
2018-09-23T03:38:08.007Z,9.99
2018-09-23T03:41:11.516Z,9.99
2018-09-23T03:44:15.033Z,9.96
2018-09-23T03:47:18.679Z,9.92
2018-09-23T03:50:22.226Z,9.94
2018-09-23T03:53:25.789Z,10.05
2018-09-23T03:56:29.389Z,10.01
2018-09-23T03:59:32.965Z,9.98
2018-09-23T04:02:36.522Z,9.97
2018-09-23T04:05:40.052Z,9.98
2018-09-23T04:08:43.567Z,9.98
2018-09-23T04:11:47.043Z,9.97
2018-09-23T04:14:50.582Z,9.96
2018-09-23T04:17:54.122Z,9.96
2018-09-23T04:20:57.794Z,9.90
2018-09-23T04:24:01.319Z,9.95
2018-09-23T04:27:04.909Z,9.88
2018-09-23T04:30:08.422Z,9.85
2018-09-23T04:33:11.998Z,9.85
2018-09-23T04:36:15.644Z,9.79
2018-09-23T04:39:19.163Z,9.80
2018-09-23T04:42:22.719Z,9.80
2018-09-23T04:45:26.319Z,9.80
2018-09-23T04:48:29.958Z,9.80
2018-09-23T04:51:33.563Z,9.82
2018-09-23T04:54:37.162Z,9.88
2018-09-23T04:57:40.828Z,9.93
2018-09-23T05:00:44.419Z,9.93
2018-09-23T05:03:47.938Z,9.86
2018-09-23T05:06:51.468Z,9.89
2018-09-23T05:09:55.038Z,9.88
2018-09-23T05:12:58.843Z,9.85
2018-09-23T05:16:02.424Z,9.82
2018-09-23T05:19:06.035Z,9.83
2018-09-23T05:22:09.668Z,9.86
2018-09-23T05:25:13.180Z,9.81
2018-09-23T05:28:16.763Z,9.79
2018-09-23T05:31:20.279Z,9.85
2018-09-23T05:34:23.760Z,9.92
2018-09-23T05:37:27.359Z,9.99
2018-09-23T05:40:30.907Z,10.03
2018-09-23T05:43:34.637Z,10.04
2018-09-23T05:46:38.300Z,10.06
2018-09-23T05:49:41.840Z,10.00
2018-09-23T05:52:45.456Z,10.07
2018-09-23T05:55:49.090Z,10.06
2018-09-23T05:58:52.631Z,10.12
2018-09-23T06:01:56.283Z,10.03
2018-09-23T06:04:59.910Z,10.09
2018-09-23T06:08:03.418Z,10.14
2018-09-23T06:11:06.953Z,10.19
2018-09-23T06:14:10.515Z,10.21
2018-09-23T06:17:14.164Z,10.27
2018-09-23T06:20:17.674Z,10.31
2018-09-23T06:23:21.274Z,10.41
2018-09-23T06:26:24.819Z,10.45
2018-09-23T06:29:28.366Z,10.51
2018-09-23T06:32:32.050Z,10.59
2018-09-23T06:35:35.639Z,10.59
2018-09-23T06:38:39.246Z,10.67
2018-09-23T06:41:42.976Z,10.69
2018-09-23T06:44:46.478Z,10.68
2018-09-23T06:47:50.016Z,10.80
2018-09-23T06:50:53.593Z,10.85
2018-09-23T06:53:57.155Z,10.99
2018-09-23T06:57:00.719Z,11.05
2018-09-23T07:00:04.350Z,11.09
2018-09-23T07:03:07.922Z,11.12
2018-09-23T07:06:11.491Z,11.16
2018-09-23T07:09:15.034Z,11.12
2018-09-23T07:12:18.530Z,11.17
2018-09-23T07:15:22.050Z,11.17
2018-09-23T07:18:25.645Z,11.28
2018-09-23T07:21:29.280Z,11.17
2018-09-23T07:24:32.861Z,11.19
2018-09-23T07:27:36.371Z,11.18
2018-09-23T07:30:39.999Z,11.27
2018-09-23T07:33:43.514Z,11.40
2018-09-23T07:36:47.148Z,11.37
2018-09-23T07:39:50.637Z,11.36
2018-09-23T07:42:54.361Z,11.40
2018-09-23T07:45:57.951Z,11.51
2018-09-23T07:49:01.545Z,11.70
2018-09-23T07:52:05.224Z,11.59
2018-09-23T07:55:08.826Z,11.62
2018-09-23T07:58:12.347Z,11.69
2018-09-23T08:01:15.996Z,11.72
2018-09-23T08:04:19.588Z,11.60
2018-09-23T08:07:23.125Z,11.81
2018-09-23T08:10:26.747Z,12.08
2018-09-23T08:13:30.679Z,12.02
2018-09-23T08:16:34.180Z,12.06
2018-09-23T08:19:37.929Z,12.04
2018-09-23T08:22:41.365Z,12.03
2018-09-23T08:25:51.142Z,12.02
2018-09-23T08:28:54.677Z,11.97
2018-09-23T08:31:58.276Z,11.98
2018-09-23T08:35:01.842Z,12.00
2018-09-23T08:38:05.464Z,12.10
2018-09-23T08:41:09.012Z,12.08
2018-09-23T08:44:12.527Z,12.28
2018-09-23T08:47:16.075Z,11.81
2018-09-23T08:50:19.747Z,11.79
2018-09-23T08:53:23.382Z,11.93
2018-09-23T08:56:26.958Z,12.05
2018-09-23T08:59:30.537Z,12.15
2018-09-23T09:02:34.201Z,12.11
2018-09-23T09:05:37.823Z,12.29
2018-09-23T09:08:41.416Z,12.45
2018-09-23T09:11:45.104Z,12.48
2018-09-23T09:14:48.680Z,12.33
2018-09-23T09:17:52.267Z,12.44
2018-09-23T09:20:55.850Z,12.40
2018-09-23T09:23:59.522Z,12.42
2018-09-23T09:27:03.122Z,12.35
2018-09-23T09:30:07.117Z,12.27
2018-09-23T09:33:10.758Z,12.26
2018-09-23T09:36:14.411Z,12.07
2018-09-23T09:39:18.004Z,12.19
2018-09-23T09:42:21.617Z,12.14
2018-09-23T09:45:25.418Z,12.19
2018-09-23T09:48:29.082Z,12.21
2018-09-23T09:51:33.608Z,12.01
2018-09-23T09:54:37.227Z,11.97
2018-09-23T09:57:40.976Z,12.16
2018-09-23T10:00:50.247Z,12.03
2018-09-23T10:03:53.985Z,12.10
2018-09-23T10:06:57.558Z,12.00
2018-09-23T10:10:01.168Z,12.06
2018-09-23T10:13:04.763Z,12.21
2018-09-23T10:16:08.397Z,12.14
2018-09-23T10:19:12.043Z,12.01
2018-09-23T10:22:15.703Z,12.15
2018-09-23T10:25:19.294Z,12.10
2018-09-23T10:28:22.931Z,12.22
2018-09-23T10:31:26.683Z,12.20
2018-09-23T10:34:30.110Z,12.20
2018-09-23T10:37:33.722Z,12.34
2018-09-23T10:40:37.379Z,12.16
2018-09-23T10:43:41.044Z,12.15
2018-09-23T10:46:44.680Z,11.85
2018-09-23T10:49:48.279Z,11.94
2018-09-23T10:52:51.894Z,11.69
2018-09-23T10:55:55.754Z,11.66
2018-09-23T10:58:59.596Z,11.54
2018-09-23T11:02:03.187Z,11.54
2018-09-23T11:05:07.081Z,11.37
2018-09-23T11:08:10.691Z,11.41
2018-09-23T11:11:14.518Z,11.32
2018-09-23T11:14:18.686Z,11.36
2018-09-23T11:17:22.313Z,11.17
2018-09-23T11:20:26.017Z,11.08
2018-09-23T11:23:29.887Z,10.94
2018-09-23T11:26:33.782Z,10.95
2018-09-23T11:29:37.350Z,10.84
2018-09-23T11:32:40.904Z,10.95
2018-09-23T11:35:44.479Z,10.86
2018-09-23T11:38:48.174Z,10.80
2018-09-23T11:41:51.878Z,10.82
2018-09-23T11:44:55.415Z,10.80
2018-09-23T11:47:59.051Z,10.78
2018-09-23T11:51:02.662Z,10.87
2018-09-23T11:54:06.415Z,10.74
2018-09-23T11:57:09.927Z,10.69
2018-09-23T12:00:13.692Z,10.70
2018-09-23T12:03:17.302Z,10.79
2018-09-23T12:06:20.960Z,10.78
2018-09-23T12:09:24.742Z,10.79
2018-09-23T12:12:28.345Z,10.82
2018-09-23T12:15:32.062Z,10.81
2018-09-23T12:18:35.589Z,10.73
2018-09-23T12:21:39.204Z,10.84
2018-09-23T12:24:42.882Z,10.71
2018-09-23T12:27:46.715Z,10.66
2018-09-23T12:30:50.560Z,10.57
2018-09-23T12:33:54.259Z,10.49
2018-09-23T12:36:57.985Z,10.31
2018-09-23T12:40:01.705Z,10.18
2018-09-23T12:43:05.385Z,10.11
2018-09-23T12:46:09.049Z,10.09
2018-09-23T12:49:12.710Z,10.10
2018-09-23T12:52:16.390Z,10.20
2018-09-23T12:55:20.096Z,10.18
2018-09-23T12:58:23.739Z,10.16
2018-09-23T13:01:27.414Z,10.27
2018-09-23T13:04:31.210Z,10.40
2018-09-23T13:07:34.939Z,10.49
2018-09-23T13:10:38.948Z,10.53
2018-09-23T13:13:42.524Z,10.35
2018-09-23T13:16:46.310Z,10.08
2018-09-23T13:19:50.096Z,10.09
2018-09-23T13:22:53.719Z,10.24
2018-09-23T13:25:57.401Z,10.13
2018-09-23T13:29:01.134Z,10.14
2018-09-23T13:32:04.768Z,9.92
2018-09-23T13:35:08.462Z,10.00
2018-09-23T13:38:12.189Z,10.12
2018-09-23T13:41:15.875Z,9.93
2018-09-23T13:44:19.499Z,9.93
2018-09-23T13:47:23.176Z,9.93
2018-09-23T13:50:26.769Z,9.74
2018-09-23T13:53:30.325Z,9.77
2018-09-23T13:56:34.054Z,9.45
2018-09-23T13:59:37.755Z,9.15
2018-09-23T14:02:41.573Z,9.27
2018-09-23T14:05:45.434Z,9.34
2018-09-23T14:08:48.979Z,9.40
2018-09-23T14:11:52.655Z,9.51
2018-09-23T14:14:56.326Z,9.60
2018-09-23T14:17:59.997Z,9.57
2018-09-23T14:21:03.713Z,9.59
2018-09-23T14:24:07.415Z,9.52
2018-09-23T14:27:11.933Z,9.55
2018-09-23T14:30:15.658Z,9.67
2018-09-23T14:33:19.465Z,9.62
2018-09-23T14:36:23.195Z,9.57
2018-09-23T14:39:27.660Z,9.52
2018-09-23T14:42:31.375Z,9.60
2018-09-23T14:45:34.980Z,9.61
2018-09-23T14:48:39.202Z,9.71
2018-09-23T14:51:43.049Z,9.51
2018-09-23T14:54:46.977Z,9.56
2018-09-23T14:57:50.421Z,9.53
2018-09-23T15:00:54.249Z,9.48
2018-09-23T15:03:58.023Z,9.34
2018-09-23T15:07:01.681Z,9.23
2018-09-23T15:10:05.573Z,9.18
2018-09-23T15:13:09.276Z,9.08
2018-09-23T15:16:13.043Z,9.04
2018-09-23T15:19:16.678Z,8.91
2018-09-23T15:22:20.312Z,8.96
2018-09-23T15:25:24.000Z,8.90
2018-09-23T15:28:27.667Z,8.96
2018-09-23T15:31:31.265Z,8.98
2018-09-23T15:34:34.942Z,8.88
2018-09-23T15:37:38.526Z,8.92
2018-09-23T15:40:42.247Z,9.02
2018-09-23T15:43:46.277Z,8.92
2018-09-23T15:46:49.961Z,8.90
2018-09-23T15:49:53.645Z,8.91
2018-09-23T15:52:57.381Z,8.87
2018-09-23T15:56:00.972Z,8.79
2018-09-23T15:59:04.712Z,8.83
2018-09-23T16:02:08.301Z,8.75
2018-09-23T16:05:11.957Z,8.71
2018-09-23T16:08:15.527Z,8.67
2018-09-23T16:11:19.190Z,8.57
2018-09-23T16:14:22.904Z,8.61
2018-09-23T16:17:26.697Z,8.58
2018-09-23T16:20:30.311Z,8.59
2018-09-23T16:23:34.054Z,8.65
2018-09-23T16:26:37.753Z,8.75
2018-09-23T16:29:41.386Z,8.74
2018-09-23T16:32:45.114Z,8.74
2018-09-23T16:35:48.730Z,8.79
2018-09-23T16:38:52.517Z,8.75
2018-09-23T16:41:56.155Z,8.74
2018-09-23T16:44:59.773Z,8.71
2018-09-23T16:48:03.458Z,8.72
2018-09-23T16:51:07.144Z,8.70
2018-09-23T16:54:10.966Z,8.71
2018-09-23T16:57:14.800Z,8.72
2018-09-23T17:00:18.435Z,8.73
2018-09-23T17:03:22.126Z,8.71
2018-09-23T17:06:25.851Z,8.72
2018-09-23T17:09:29.447Z,8.71
2018-09-23T17:12:33.105Z,8.74
2018-09-23T17:15:36.830Z,8.79
2018-09-23T17:18:40.483Z,8.74
2018-09-23T17:21:44.290Z,8.73
2018-09-23T17:24:47.907Z,8.71
2018-09-23T17:27:53.442Z,8.71
2018-09-23T17:30:57.208Z,8.70
2018-09-23T17:34:00.824Z,8.72
2018-09-23T17:37:04.477Z,8.77
2018-09-23T17:40:08.213Z,8.82
2018-09-23T17:43:11.914Z,8.85
2018-09-23T17:46:15.570Z,8.83
2018-09-23T17:49:19.167Z,8.85
2018-09-23T17:52:23.057Z,8.82
2018-09-23T17:55:26.730Z,8.80
2018-09-23T17:58:30.566Z,8.79
2018-09-23T18:01:34.193Z,8.65
2018-09-23T18:04:37.902Z,8.74
2018-09-23T18:07:41.597Z,8.71
2018-09-23T18:10:45.303Z,8.65
2018-09-23T18:13:49.103Z,8.64
2018-09-23T18:16:52.774Z,8.60
2018-09-23T18:19:56.374Z,8.64
2018-09-23T18:23:00.007Z,8.59
2018-09-23T18:26:03.703Z,8.59
2018-09-23T18:29:07.407Z,8.57
2018-09-23T18:32:11.085Z,8.49
2018-09-23T18:35:15.382Z,8.45
2018-09-23T18:38:19.019Z,8.41
2018-09-23T18:41:22.696Z,8.38
2018-09-23T18:44:26.467Z,8.29
2018-09-23T18:47:30.184Z,8.20
2018-09-23T18:50:33.777Z,8.17
2018-09-23T18:53:37.439Z,8.13
2018-09-23T18:56:40.997Z,8.17
2018-09-23T18:59:44.760Z,8.13
2018-09-23T19:02:48.342Z,8.07
2018-09-23T19:05:51.988Z,8.06
2018-09-23T19:08:55.624Z,8.06
2018-09-23T19:11:59.362Z,8.04
2018-09-23T19:15:02.920Z,8.06
2018-09-23T19:18:06.748Z,8.05
2018-09-23T19:21:10.313Z,8.15
2018-09-23T19:24:13.918Z,8.22
2018-09-23T19:27:17.594Z,8.28
2018-09-23T19:30:21.449Z,8.44
2018-09-23T19:33:25.106Z,8.50
2018-09-23T19:36:28.743Z,8.52
2018-09-23T19:39:32.430Z,8.56
2018-09-23T19:42:36.084Z,8.57
2018-09-23T19:45:39.916Z,8.50
2018-09-23T19:48:43.453Z,8.55
2018-09-23T19:51:47.066Z,8.53
2018-09-23T19:54:50.767Z,8.50
2018-09-23T19:57:54.375Z,8.51
2018-09-23T20:00:58.079Z,8.50
2018-09-23T20:04:01.709Z,8.50
2018-09-23T20:07:05.557Z,8.48
2018-09-23T20:10:08.956Z,8.47
2018-09-23T20:13:12.694Z,8.48
2018-09-23T20:16:16.413Z,8.47
2018-09-23T20:19:20.176Z,8.48
2018-09-23T20:22:23.807Z,8.58
2018-09-23T20:25:27.580Z,8.59
2018-09-23T20:28:31.270Z,8.62
2018-09-23T20:31:34.859Z,8.59
2018-09-23T20:34:38.611Z,8.58
2018-09-23T20:37:42.298Z,8.66
2018-09-23T20:40:46.113Z,8.68
2018-09-23T20:43:49.830Z,8.71
2018-09-23T20:46:53.829Z,8.73
2018-09-23T20:49:57.629Z,8.70
2018-09-23T20:53:01.688Z,8.75
2018-09-23T20:56:05.387Z,8.77
2018-09-23T20:59:09.343Z,8.76
2018-09-23T21:02:13.001Z,8.78
2018-09-23T21:05:16.599Z,8.74
2018-09-23T21:08:20.359Z,8.73
2018-09-23T21:11:24.130Z,8.72
2018-09-23T21:14:28.564Z,8.75
2018-09-23T21:17:32.295Z,8.71
2018-09-23T21:20:35.980Z,8.65
2018-09-23T21:23:39.619Z,8.63
2018-09-23T21:26:43.161Z,8.61
2018-09-23T21:29:46.834Z,8.68
2018-09-23T21:32:50.521Z,8.63
2018-09-23T21:35:54.190Z,8.61
2018-09-23T21:38:57.864Z,8.65
2018-09-23T21:42:01.450Z,8.64
2018-09-23T21:45:05.288Z,8.61
2018-09-23T21:48:09.058Z,8.51
2018-09-23T21:51:12.625Z,8.52
2018-09-23T21:54:16.248Z,8.46
2018-09-23T21:57:19.813Z,8.48
2018-09-23T22:00:27.158Z,8.44
2018-09-23T22:03:30.696Z,8.38
2018-09-23T22:06:34.331Z,8.37
2018-09-23T22:09:37.955Z,8.43
2018-09-23T22:12:41.557Z,8.47
2018-09-23T22:15:45.209Z,8.47
2018-09-23T22:18:48.844Z,8.44
2018-09-23T22:21:52.483Z,8.41
2018-09-23T22:24:55.938Z,8.42
2018-09-23T22:27:59.619Z,8.57
2018-09-23T22:31:03.323Z,8.57
2018-09-23T22:34:07.111Z,8.57
2018-09-23T22:37:10.824Z,8.60
2018-09-23T22:40:14.467Z,8.56
2018-09-23T22:43:18.125Z,8.58
2018-09-23T22:46:21.630Z,8.53
2018-09-23T22:49:25.208Z,8.49
2018-09-23T22:52:29.030Z,8.65
2018-09-23T22:55:32.576Z,8.60
2018-09-23T22:58:36.245Z,8.56
2018-09-23T23:01:39.926Z,8.70
2018-09-23T23:04:43.519Z,8.74
2018-09-23T23:07:47.235Z,8.56
2018-09-23T23:10:50.756Z,8.61
2018-09-23T23:13:54.465Z,8.61
2018-09-23T23:16:58.017Z,8.60
2018-09-23T23:20:01.587Z,8.51
2018-09-23T23:23:05.202Z,8.63
2018-09-23T23:26:08.877Z,8.67
2018-09-23T23:29:12.445Z,8.62
2018-09-23T23:32:15.996Z,8.58
2018-09-23T23:35:19.534Z,8.68
2018-09-23T23:38:23.150Z,8.71
2018-09-23T23:41:26.662Z,8.63
2018-09-23T23:44:30.175Z,8.50
2018-09-23T23:47:33.726Z,8.44
2018-09-23T23:50:37.387Z,8.43
2018-09-23T23:53:41.093Z,8.46
2018-09-23T23:56:44.644Z,8.43
2018-09-23T23:59:48.152Z,8.42
